Time;durP1;ratioP1;P1;durP2;ratioP2;P2;SDS_P1;SDS_P2;PMS_P1;PMS_P2;Temp;Humidity;BMP_temperature;BMP_pressure;BME280_temperature;BME280_humidity;BME280_pressure;Samples;Min_cycle;Max_cycle;Signal;HPM_P1;HPM_P2
2024/03/09 00:01:37;;;;;;;9.60;6.10;;;;;;;3.36;76.22;96845.41;5126940;27;20188;-85
2024/03/09 00:04:06;;;;;;;9.03;6.30;;;;;;;3.07;77.91;96828.00;5131037;27;20592;-85
2024/03/09 00:06:35;;;;;;;7.60;6.03;;;;;;;3.36;78.31;96863.03;5136257;27;20190;-85
2024/03/09 00:09:03;;;;;;;10.30;6.13;;;;;;;3.22;78.18;96859.88;5135346;27;20251;-85
2024/03/09 00:11:32;;;;;;;10.83;6.07;;;;;;;3.02;78.55;96825.25;5136593;27;20240;-85
2024/03/09 00:13:58;;;;;;;8.93;6.60;;;;;;;3.33;78.57;96847.72;5134855;27;20195;-85
2024/03/09 00:16:27;;;;;;;9.53;7.17;;;;;;;3.46;77.38;96860.63;5135944;27;20195;-84
2024/03/09 00:18:54;;;;;;;9.63;6.73;;;;;;;3.31;77.43;96840.06;5136728;27;20198;-85
2024/03/09 00:21:21;;;;;;;9.07;6.57;;;;;;;3.22;78.67;96838.03;5136645;27;20570;-84
2024/03/09 00:23:50;;;;;;;9.30;6.53;;;;;;;3.43;77.91;96851.34;5119911;27;20268;-83
2024/03/09 00:26:18;;;;;;;8.67;6.63;;;;;;;3.46;78.15;96844.81;5132760;27;20285;-86
2024/03/09 00:28:45;;;;;;;7.87;6.70;;;;;;;3.50;77.32;96835.44;5135963;27;20247;-85
2024/03/09 00:31:12;;;;;;;10.70;6.30;;;;;;;3.38;77.64;96832.84;5119365;27;20226;-85
2024/03/09 00:33:42;;;;;;;11.87;7.60;;;;;;;3.46;77.51;96831.66;5119653;27;20230;-86
2024/03/09 00:36:10;;;;;;;12.70;8.17;;;;;;;3.37;78.10;96822.56;5134907;27;20251;-85
2024/03/09 00:38:42;;;;;;;9.87;7.60;;;;;;;3.36;77.84;96813.06;5115007;27;20195;-85
2024/03/09 00:41:10;;;;;;;11.10;6.87;;;;;;;3.27;78.62;96830.25;5123565;27;20226;-85
2024/03/09 00:43:43;;;;;;;11.13;7.80;;;;;;;2.89;78.66;96766.66;5119593;27;20218;-85
2024/03/09 00:46:11;;;;;;;10.53;7.33;;;;;;;3.14;78.59;96805.03;5116075;27;20199;-85
2024/03/09 00:48:38;;;;;;;14.20;8.10;;;;;;;3.33;78.82;96829.28;5134347;27;20718;-85
2024/03/09 00:51:07;;;;;;;10.90;7.90;;;;;;;2.91;79.27;96788.25;5135072;27;20223;-85
2024/03/09 00:53:34;;;;;;;9.80;7.43;;;;;;;2.59;80.27;96737.09;5122806;27;20249;-85
2024/03/09 00:56:01;;;;;;;11.30;8.47;;;;;;;3.05;80.07;96785.34;5114071;28;20199;-86
2024/03/09 00:58:28;;;;;;;9.30;7.57;;;;;;;3.35;79.91;96808.81;5114539;28;20302;-85
2024/03/09 01:00:55;;;;;;;12.87;8.43;;;;;;;3.25;79.15;96787.59;5116816;27;20207;-84
2024/03/09 01:03:22;;;;;;;8.03;7.20;;;;;;;3.36;79.15;96800.69;5118522;27;20226;-85
2024/03/09 01:05:49;;;;;;;8.47;6.73;;;;;;;3.34;78.97;96804.59;5129232;27;20203;-85
2024/03/09 01:08:18;;;;;;;11.90;7.60;;;;;;;3.34;79.70;96805.41;5135788;27;20625;-85
2024/03/09 01:10:45;;;;;;;11.90;8.07;;;;;;;3.30;79.79;96804.28;5133724;27;20214;-85
2024/03/09 01:13:12;;;;;;;11.53;7.70;;;;;;;2.94;79.21;96750.16;5114460;28;20195;-85
2024/03/09 01:15:39;;;;;;;10.30;7.73;;;;;;;2.97;79.95;96767.31;5115347;28;20215;-84
2024/03/09 01:18:07;;;;;;;11.47;8.13;;;;;;;3.23;79.36;96789.66;5121684;27;20230;-86
2024/03/09 01:20:34;;;;;;;10.90;7.57;;;;;;;3.40;79.35;96822.06;5134267;27;20317;-85
2024/03/09 01:23:01;;;;;;;10.63;8.03;;;;;;;2.89;78.54;96721.16;5134882;27;20547;-85
2024/03/09 01:25:29;;;;;;;11.30;7.90;;;;;;;3.08;79.31;96769.91;5135328;27;20226;-85
2024/03/09 01:27:56;;;;;;;14.20;9.37;;;;;;;3.07;80.36;96797.25;5130964;27;20199;-85
2024/03/09 01:30:24;;;;;;;13.67;8.13;;;;;;;2.81;81.20;96782.00;5114145;28;20195;-85
2024/03/09 01:32:51;;;;;;;11.83;9.10;;;;;;;2.61;81.16;96766.59;5122226;27;20222;-85
2024/03/09 01:35:18;;;;;;;13.67;9.33;;;;;;;2.77;81.19;96789.53;5134664;27;20681;-85
2024/03/09 01:37:45;;;;;;;11.90;8.43;;;;;;;2.76;81.19;96781.88;5133544;27;20199;-85
2024/03/09 01:40:13;;;;;;;12.20;9.10;;;;;;;2.95;81.03;96791.22;5134271;27;20198;-84
2024/03/09 01:42:43;;;;;;;12.23;8.13;;;;;;;3.12;79.99;96794.72;5134245;27;20662;-85
2024/03/09 01:45:10;;;;;;;11.27;8.80;;;;;;;3.25;80.71;96814.69;5134027;27;20186;-85
2024/03/09 01:47:38;;;;;;;12.67;8.90;;;;;;;3.06;80.41;96761.47;5134911;27;20199;-84
2024/03/09 01:50:10;;;;;;;15.40;8.50;;;;;;;3.40;79.69;96819.44;5134650;27;20199;-85
2024/03/09 01:52:38;;;;;;;12.73;9.77;;;;;;;3.41;78.98;96808.69;5133479;27;20252;-84
2024/03/09 01:55:09;;;;;;;12.80;9.43;;;;;;;3.37;79.46;96798.88;5134137;27;20614;-84
2024/03/09 01:57:37;;;;;;;12.37;9.97;;;;;;;3.37;80.08;96809.41;5133607;27;20191;-86
2024/03/09 02:00:10;;;;;;;12.50;9.90;;;;;;;3.37;80.17;96807.56;5134366;27;20205;-85
2024/03/09 02:02:37;;;;;;;14.23;9.57;;;;;;;3.33;80.10;96797.72;5114377;27;20196;-84
2024/03/09 02:05:10;;;;;;;10.43;8.53;;;;;;;3.30;80.16;96796.38;5134096;27;20538;-85
2024/03/09 02:07:37;;;;;;;14.97;8.97;;;;;;;3.29;81.07;96788.72;5134055;27;20229;-84
2024/03/09 02:10:06;;;;;;;11.67;8.10;;;;;;;3.21;80.78;96795.13;5134358;27;20198;-85
2024/03/09 02:12:33;;;;;;;12.40;9.33;;;;;;;3.15;80.87;96791.63;5133004;27;20219;-85
2024/03/09 02:15:01;;;;;;;10.77;8.07;;;;;;;3.13;81.38;96793.66;5133593;27;20270;-85
2024/03/09 02:17:30;;;;;;;10.80;7.73;;;;;;;3.21;81.08;96799.59;5131742;27;20606;-85
2024/03/09 02:19:57;;;;;;;16.47;11.33;;;;;;;3.28;80.56;96805.53;5112891;28;20231;-85
2024/03/09 02:22:27;;;;;;;13.63;9.90;;;;;;;3.06;80.60;96776.44;5113918;28;20207;-84
2024/03/09 02:24:56;;;;;;;12.40;8.30;;;;;;;3.29;80.54;96804.50;5113431;27;20203;-85
2024/03/09 02:27:25;;;;;;;13.93;9.07;;;;;;;3.24;79.81;96804.41;5134146;27;20205;-85
2024/03/09 02:29:53;;;;;;;11.03;8.87;;;;;;;3.15;81.32;96799.50;5134094;27;20194;-85
2024/03/09 02:32:21;;;;;;;10.40;8.73;;;;;;;2.89;82.06;96800.03;5131878;27;20318;-85
2024/03/09 02:34:48;;;;;;;13.77;10.33;;;;;;;2.75;82.94;96798.66;5133330;27;20665;-84
2024/03/09 02:37:15;;;;;;;13.90;9.33;;;;;;;2.67;83.11;96768.28;5134109;27;20285;-84
2024/03/09 02:39:42;;;;;;;14.60;10.00;;;;;;;2.87;82.10;96768.72;5133928;27;20195;-84
2024/03/09 02:42:10;;;;;;;10.53;8.83;;;;;;;3.16;81.63;96797.69;5133909;27;20187;-84
2024/03/09 02:44:40;;;;;;;10.07;8.00;;;;;;;3.10;82.18;96801.25;5132395;27;20190;-85
2024/03/09 02:47:06;;;;;;;11.07;8.53;;;;;;;3.13;82.13;96796.31;5132990;27;20198;-84
2024/03/09 02:49:35;;;;;;;12.67;8.93;;;;;;;3.16;81.72;96787.94;5132601;27;20202;-85
2024/03/09 02:52:02;;;;;;;14.17;10.13;;;;;;;2.91;82.21;96737.50;5133061;27;20751;-85
2024/03/09 02:54:29;;;;;;;14.03;10.33;;;;;;;3.18;82.33;96790.38;5132935;27;20202;-85
2024/03/09 02:56:56;;;;;;;15.53;10.40;;;;;;;2.98;82.27;96753.94;5133047;27;20280;-84
2024/03/09 02:59:26;;;;;;;15.63;11.07;;;;;;;2.86;81.53;96753.16;5133160;27;20245;-85
2024/03/09 03:01:52;;;;;;;14.30;11.47;;;;;;;2.77;81.46;96736.16;5132068;27;20226;-85
2024/03/09 03:04:18;;;;;;;15.27;10.50;;;;;;;3.13;82.14;96793.66;5132789;27;20195;-85
2024/03/09 03:06:45;;;;;;;15.53;10.67;;;;;;;3.23;81.70;96792.28;5132567;27;20709;-85
2024/03/09 03:09:15;;;;;;;16.27;9.67;;;;;;;2.84;81.82;96748.16;5115225;27;20199;-86
2024/03/09 03:11:42;;;;;;;13.63;11.03;;;;;;;3.33;81.66;96781.94;5133715;27;20210;-85
2024/03/09 03:14:09;;;;;;;15.60;9.67;;;;;;;3.12;81.45;96778.94;5133820;28;20259;-84
2024/03/09 03:16:38;;;;;;;14.50;9.70;;;;;;;3.04;81.29;96755.63;5133371;28;20546;-85
2024/03/09 03:19:07;;;;;;;13.50;8.93;;;;;;;3.11;81.65;96793.13;5131835;27;20255;-85
2024/03/09 03:21:35;;;;;;;14.00;10.10;;;;;;;3.04;81.77;96796.91;5133089;28;20289;-85
2024/03/09 03:24:02;;;;;;;15.83;9.90;;;;;;;3.11;81.63;96805.47;5133278;28;20201;-85
2024/03/09 03:26:31;;;;;;;12.20;9.43;;;;;;;2.96;81.09;96777.03;5114280;27;20203;-85
2024/03/09 03:29:01;;;;;;;15.57;10.20;;;;;;;3.13;81.12;96806.03;5126801;28;20228;-85
2024/03/09 03:31:28;;;;;;;14.70;10.33;;;;;;;2.97;81.18;96775.22;5123201;28;20255;-85
2024/03/09 03:33:57;;;;;;;13.50;9.57;;;;;;;3.01;81.35;96810.53;5132155;28;20187;-84
2024/03/09 03:36:25;;;;;;;15.93;10.57;;;;;;;2.75;82.13;96780.28;5132558;28;20589;-85
2024/03/09 03:38:51;;;;;;;15.20;9.97;;;;;;;2.73;83.19;96816.50;5133733;28;20195;-84
2024/03/09 03:41:22;;;;;;;17.30;10.73;;;;;;;2.79;83.54;96812.94;5132985;27;20199;-85
2024/03/09 03:43:48;;;;;;;12.80;9.70;;;;;;;2.86;82.99;96824.94;5131979;28;20194;-85
2024/03/09 03:46:16;;;;;;;14.17;9.63;;;;;;;2.64;83.17;96787.97;5132586;28;20209;-85
2024/03/09 03:48:45;;;;;;;11.73;9.30;;;;;;;2.99;82.73;96808.13;5132009;28;20607;-85
2024/03/09 03:51:14;;;;;;;14.27;9.80;;;;;;;2.88;82.53;96816.84;5132862;28;20244;-85
2024/03/09 03:53:41;;;;;;;15.07;9.97;;;;;;;3.03;82.15;96805.84;5132926;28;20218;-85
2024/03/09 03:56:08;;;;;;;14.50;10.20;;;;;;;3.14;81.55;96807.66;5131884;28;20199;-84
2024/03/09 03:58:35;;;;;;;17.47;9.73;;;;;;;3.12;80.95;96778.13;5132763;27;20233;-84
2024/03/09 04:01:02;;;;;;;17.10;11.97;;;;;;;3.03;80.45;96782.19;5123596;28;20203;-84
2024/03/09 04:03:31;;;;;;;17.43;12.87;;;;;;;3.16;80.88;96792.41;5110994;28;20195;-85
2024/03/09 04:05:59;;;;;;;14.83;12.00;;;;;;;3.19;81.00;96790.13;5111767;28;20191;-84
2024/03/09 04:08:27;;;;;;;13.73;10.53;;;;;;;2.90;81.71;96762.19;5119167;28;20199;-84
2024/03/09 04:10:54;;;;;;;26.47;20.77;;;;;;;3.14;81.70;96797.13;5117319;28;20199;-84
2024/03/09 04:13:23;;;;;;;21.67;19.20;;;;;;;2.77;81.88;96754.56;5132854;28;20215;-84
2024/03/09 04:15:51;;;;;;;18.63;14.97;;;;;;;2.98;82.33;96801.25;5125779;28;20882;-84
2024/03/09 04:18:17;;;;;;;12.23;10.00;;;;;;;2.98;82.61;96806.50;5111880;28;20199;-84
2024/03/09 04:20:44;;;;;;;15.10;11.07;;;;;;;3.02;83.33;96796.34;5115401;28;20689;-84
2024/03/09 04:23:16;;;;;;;14.53;11.00;;;;;;;3.00;82.93;96782.63;5116600;28;20199;-83
2024/03/09 04:25:44;;;;;;;16.63;11.30;;;;;;;3.19;82.31;96805.91;5116443;28;20227;-84
2024/03/09 04:28:13;;;;;;;18.63;13.83;;;;;;;3.07;81.24;96778.84;5115456;28;20200;-84
2024/03/09 04:30:42;;;;;;;19.93;13.10;;;;;;;2.97;82.08;96783.88;5114715;28;20226;-85
2024/03/09 04:33:11;;;;;;;20.57;12.60;;;;;;;3.22;81.80;96801.22;5114538;28;20250;-84
2024/03/09 04:35:38;;;;;;;23.13;13.93;;;;;;;3.24;82.34;96793.88;5115724;28;20260;-84
2024/03/09 04:38:05;;;;;;;25.33;15.97;;;;;;;3.07;81.88;96802.50;5121849;27;20198;-84
2024/03/09 04:40:33;;;;;;;22.43;14.50;;;;;;;2.98;82.13;96777.59;5117320;27;20684;-84
2024/03/09 04:43:03;;;;;;;22.70;15.23;;;;;;;3.18;82.04;96808.78;5120971;27;20662;-85
2024/03/09 04:45:31;;;;;;;29.80;15.10;;;;;;;3.16;82.23;96805.56;5115489;28;20195;-87
2024/03/09 04:47:59;;;;;;;20.90;15.03;;;;;;;3.02;82.32;96773.50;5119730;27;20195;-86
2024/03/09 04:50:26;;;;;;;23.60;13.83;;;;;;;3.05;81.96;96780.09;5136354;27;20195;-87
2024/03/09 04:52:52;;;;;;;23.40;15.50;;;;;;;2.99;81.09;96789.72;5135762;27;20272;-85
2024/03/09 04:55:21;;;;;;;25.83;16.30;;;;;;;2.87;82.03;96783.69;5134611;27;20187;-86
2024/03/09 04:57:50;;;;;;;23.03;15.40;;;;;;;2.92;83.23;96796.94;5136264;27;20310;-86
2024/03/09 05:00:18;;;;;;;21.60;15.03;;;;;;;2.99;83.50;96802.06;5122306;27;20210;-86
2024/03/09 05:02:46;;;;;;;29.17;16.23;;;;;;;2.51;83.96;96750.59;5131309;27;20279;-86
2024/03/09 05:05:14;;;;;;;35.83;21.90;;;;;;;2.61;83.71;96758.72;5133268;27;20584;-86
2024/03/09 05:07:43;;;;;;;24.23;14.30;;;;;;;2.88;83.38;96806.31;5127518;27;20191;-86
2024/03/09 05:10:11;;;;;;;16.67;12.57;;;;;;;2.93;84.06;96819.56;5134764;27;20576;-86
2024/03/09 05:12:38;;;;;;;28.13;21.70;;;;;;;2.96;84.34;96818.31;5135596;27;20214;-85
2024/03/09 05:15:06;;;;;;;29.03;20.00;;;;;;;2.91;83.64;96821.63;5133900;27;20203;-85
2024/03/09 05:17:34;;;;;;;22.47;18.13;;;;;;;2.91;83.95;96835.56;5134861;27;20199;-85
2024/03/09 05:20:11;;;;;;;23.37;18.03;;;;;;;3.00;84.61;96829.97;5133576;27;20201;-84
2024/03/09 05:22:38;;;;;;;21.97;15.90;;;;;;;2.91;84.02;96821.63;5134804;27;20202;-85
2024/03/09 05:25:10;;;;;;;25.70;16.97;;;;;;;3.06;83.87;96832.47;5134570;27;20236;-84
2024/03/09 05:27:40;;;;;;;21.87;14.23;;;;;;;3.10;84.42;96833.59;5126894;27;20199;-84
2024/03/09 05:30:08;;;;;;;42.73;30.27;;;;;;;3.14;83.92;96836.56;5113928;28;20649;-84
2024/03/09 05:32:37;;;;;;;34.67;23.00;;;;;;;2.98;83.67;96814.41;5114575;28;20637;-84
2024/03/09 05:35:13;;;;;;;22.90;15.00;;;;;;;3.09;83.65;96837.25;5114364;28;20285;-84
2024/03/09 05:37:42;;;;;;;26.23;16.60;;;;;;;2.98;83.37;96811.78;5125372;27;20226;-85
2024/03/09 05:40:13;;;;;;;31.90;18.73;;;;;;;3.11;83.92;96840.47;5134476;27;20201;-85
2024/03/09 05:42:42;;;;;;;26.50;19.80;;;;;;;2.89;83.88;96807.91;5134545;27;20715;-85
2024/03/09 05:45:15;;;;;;;44.97;30.70;;;;;;;3.15;82.90;96843.44;5135174;27;20202;-84
2024/03/09 05:47:46;;;;;;;32.03;21.90;;;;;;;2.83;83.51;96798.34;5134293;27;20194;-84
2024/03/09 05:50:13;;;;;;;35.00;21.63;;;;;;;3.18;83.64;96845.59;5135101;27;20653;-85
2024/03/09 05:52:41;;;;;;;33.23;20.37;;;;;;;3.13;83.40;96837.59;5134981;27;20684;-84
2024/03/09 05:55:08;;;;;;;30.13;21.13;;;;;;;3.09;83.36;96842.50;5134609;27;20213;-84
2024/03/09 05:57:35;;;;;;;34.33;20.07;;;;;;;3.23;83.72;96852.78;5134309;27;20206;-84
2024/03/09 06:00:02;;;;;;;34.30;21.07;;;;;;;3.11;83.14;96845.72;5132913;27;20195;-84
2024/03/09 06:02:32;;;;;;;31.60;21.60;;;;;;;3.22;82.42;96845.94;5133818;27;20234;-87
2024/03/09 06:05:00;;;;;;;31.50;19.17;;;;;;;3.16;83.17;96843.19;5125954;27;20196;-83
2024/03/09 06:07:27;;;;;;;33.53;18.67;;;;;;;3.05;84.21;96849.25;5119057;27;20195;-83
2024/03/09 06:09:54;;;;;;;29.63;18.60;;;;;;;2.87;83.63;96831.81;5133437;27;20195;-83
2024/03/09 06:12:21;;;;;;;27.07;17.60;;;;;;;3.29;83.79;96865.00;5133292;27;20198;-83
2024/03/09 06:14:48;;;;;;;427.77;76.03;;;;;;;3.33;83.99;96861.69;5133632;27;20679;-83
2024/03/09 06:17:15;;;;;;;78.03;32.83;;;;;;;3.05;82.42;96811.66;5132938;27;20199;-83
2024/03/09 06:19:42;;;;;;;49.93;25.43;;;;;;;3.34;83.45;96862.47;5123198;27;20290;-83
2024/03/09 06:22:10;;;;;;;78.13;25.63;;;;;;;3.39;83.08;96866.00;5112464;28;20977;-83
2024/03/09 06:24:37;;;;;;;82.10;30.37;;;;;;;3.27;83.34;96857.34;5120628;27;20205;-83
2024/03/09 06:27:09;;;;;;;31.87;22.97;;;;;;;3.39;82.34;96866.00;5132817;27;20657;-83
2024/03/09 06:29:37;;;;;;;31.63;18.73;;;;;;;2.86;83.02;96789.97;5133749;27;20191;-83
2024/03/09 06:32:05;;;;;;;29.63;20.43;;;;;;;3.43;82.90;96874.22;5133172;27;20191;-83
2024/03/09 06:34:32;;;;;;;51.83;24.67;;;;;;;3.42;83.64;96875.28;5118972;27;20215;-84
2024/03/09 06:36:59;;;;;;;1971.07;433.83;;;;;;;3.50;82.71;96885.44;5122142;27;20192;-84
2024/03/09 06:39:30;;;;;;;372.77;96.87;;;;;;;3.51;82.46;96865.97;5132377;27;20194;-84
2024/03/09 06:41:57;;;;;;;56.80;31.17;;;;;;;3.49;82.10;96869.88;5122473;27;20211;-84
2024/03/09 06:44:25;;;;;;;56.77;37.47;;;;;;;3.51;82.43;96884.38;5125246;27;20191;-84
2024/03/09 06:46:52;;;;;;;55.53;39.40;;;;;;;3.49;82.38;96873.31;5124833;27;20298;-84
2024/03/09 06:49:19;;;;;;;63.40;40.10;;;;;;;3.49;82.07;96870.69;5122802;27;20285;-84
2024/03/09 06:51:45;;;;;;;44.20;28.93;;;;;;;3.39;82.25;96871.25;5129293;27;20202;-83
2024/03/09 06:54:12;;;;;;;723.33;142.50;;;;;;;3.40;82.28;96875.50;5115942;27;20685;-84
2024/03/09 06:56:41;;;;;;;141.63;46.43;;;;;;;3.41;82.45;96878.94;5132467;27;20198;-84
2024/03/09 06:59:08;;;;;;;39.90;25.50;;;;;;;3.22;82.50;96851.19;5112357;28;20735;-85
2024/03/09 07:01:36;;;;;;;28.90;17.17;;;;;;;3.43;82.56;96887.38;5119954;27;20317;-84
2024/03/09 07:04:05;;;;;;;25.70;18.73;;;;;;;3.37;82.33;96872.56;5130917;27;20194;-83
2024/03/09 07:06:32;;;;;;;27.63;21.47;;;;;;;3.48;82.62;96894.56;5131841;27;20649;-84
2024/03/09 07:08:59;;;;;;;61.40;25.67;;;;;;;3.12;82.87;96849.16;5118647;27;20196;-84
2024/03/09 07:11:26;;;;;;;53.70;30.57;;;;;;;3.41;82.90;96873.69;5111225;27;20257;-84
2024/03/09 07:13:57;;;;;;;36.97;23.23;;;;;;;3.44;82.66;96876.63;5117750;28;20225;-83
2024/03/09 07:16:24;;;;;;;29.87;21.83;;;;;;;3.38;82.83;96874.13;5128308;28;20224;-84
2024/03/09 07:18:51;;;;;;;32.40;21.67;;;;;;;3.68;81.99;96898.44;5127807;28;20251;-84
2024/03/09 07:21:20;;;;;;;27.37;19.17;;;;;;;3.59;82.06;96891.91;5131829;28;20653;-84
2024/03/09 07:23:47;;;;;;;29.57;20.33;;;;;;;3.43;82.67;96877.66;5128015;27;20649;-84
2024/03/09 07:26:15;;;;;;;35.07;21.30;;;;;;;3.42;82.37;96875.28;5132078;28;20194;-84
2024/03/09 07:28:44;;;;;;;26.17;19.50;;;;;;;3.48;82.95;96897.22;5125702;27;20206;-84
2024/03/09 07:31:13;;;;;;;34.77;18.47;;;;;;;3.50;83.42;96898.59;5122928;27;20205;-84
2024/03/09 07:33:43;;;;;;;33.10;20.57;;;;;;;3.59;82.52;96904.28;5118105;28;20231;-84
2024/03/09 07:36:10;;;;;;;31.60;23.80;;;;;;;3.73;81.94;96899.56;5110341;28;20199;-84
2024/03/09 07:38:37;;;;;;;29.37;18.90;;;;;;;3.71;82.15;96904.25;5115685;28;20186;-84
2024/03/09 07:41:07;;;;;;;191.63;44.93;;;;;;;3.72;81.68;96904.03;5121510;28;20191;-84
2024/03/09 07:43:34;;;;;;;205.97;42.80;;;;;;;3.65;81.49;96879.66;5127256;28;20197;-84
2024/03/09 07:46:04;;;;;;;46.60;29.20;;;;;;;3.92;80.53;96898.34;5123638;28;20661;-85
2024/03/09 07:48:34;;;;;;;73.67;37.63;;;;;;;3.99;80.68;96904.25;5111317;28;20203;-84
2024/03/09 07:51:00;;;;;;;35.90;21.30;;;;;;;3.99;81.00;96906.91;5129864;28;20279;-84
2024/03/09 07:53:27;;;;;;;34.23;23.13;;;;;;;4.09;80.09;96922.06;5128724;27;20222;-84
2024/03/09 07:55:57;;;;;;;24.80;19.20;;;;;;;4.11;79.25;96912.91;5118558;27;20249;-84
2024/03/09 07:58:24;;;;;;;37.07;23.50;;;;;;;4.19;79.46;96916.19;5120491;27;21084;-85
2024/03/09 08:00:53;;;;;;;23.57;17.43;;;;;;;4.34;79.00;96908.56;5134727;27;20198;-84
2024/03/09 08:03:22;;;;;;;24.80;18.63;;;;;;;3.80;78.62;96848.38;5132958;27;20696;-84
2024/03/09 08:05:51;;;;;;;27.57;17.73;;;;;;;4.21;79.41;96914.91;5135108;27;20202;-84
2024/03/09 08:08:17;;;;;;;22.47;18.30;;;;;;;4.43;78.88;96906.31;5125028;27;20191;-84
2024/03/09 08:10:46;;;;;;;26.53;18.93;;;;;;;4.47;nan;96916.16;5114171;28;20206;-85
2024/03/09 08:13:13;;;;;;;24.97;16.80;;;;;;;4.35;78.10;96895.13;5114074;28;20247;-85
2024/03/09 08:15:40;;;;;;;76.33;25.60;;;;;;;4.27;77.35;96905.28;5130826;27;20195;-84
2024/03/09 08:18:08;;;;;;;23.47;17.40;;;;;;;4.20;78.23;96907.25;5135025;27;20248;-84
2024/03/09 08:20:35;;;;;;;34.77;19.87;;;;;;;4.23;78.31;96898.88;5116425;27;20290;-85
2024/03/09 08:23:03;;;;;;;36.33;28.30;;;;;;;4.46;78.17;96905.84;5125158;27;20279;-84
2024/03/09 08:25:31;;;;;;;46.47;32.60;;;;;;;4.50;77.42;96902.50;5114345;27;20199;-83
2024/03/09 08:27:58;;;;;;;31.67;21.87;;;;;;;4.60;77.74;96902.63;5113963;28;20199;-84
2024/03/09 08:30:26;;;;;;;51.20;34.20;;;;;;;4.71;77.56;96903.59;5124307;27;20186;-84
2024/03/09 08:32:58;;;;;;;60.53;38.20;;;;;;;4.68;76.97;96887.47;5134810;27;20202;-84
2024/03/09 08:35:27;;;;;;;56.33;36.83;;;;;;;4.82;78.03;96894.00;5131288;27;20199;-85
2024/03/09 08:37:56;;;;;;;53.47;36.87;;;;;;;4.94;76.40;96897.34;5125092;27;20209;-85
2024/03/09 08:40:27;;;;;;;28.07;21.07;;;;;;;4.80;76.41;96891.63;5132921;27;20195;-85
2024/03/09 08:42:54;;;;;;;27.40;20.97;;;;;;;4.83;76.18;96891.13;5134682;27;20194;-84
2024/03/09 08:45:23;;;;;;;49.77;27.57;;;;;;;4.91;75.99;96887.28;5134473;27;20187;-85
2024/03/09 08:47:50;;;;;;;26.07;16.03;;;;;;;4.94;75.29;96892.06;5134320;27;20205;-85
2024/03/09 08:50:19;;;;;;;30.83;21.17;;;;;;;4.84;75.51;96887.47;5115864;27;20206;-85
2024/03/09 08:52:49;;;;;;;18.43;15.10;;;;;;;4.86;76.24;96901.19;5135832;27;20197;-84
2024/03/09 08:55:16;;;;;;;24.63;15.07;;;;;;;4.83;75.94;96874.50;5119420;27;20247;-85
2024/03/09 08:57:46;;;;;;;28.80;21.10;;;;;;;4.62;76.20;96832.03;5125562;27;20203;-84
2024/03/09 09:00:15;;;;;;;19.03;13.63;;;;;;;4.76;74.52;96876.50;5119268;27;20215;-85
2024/03/09 09:02:46;;;;;;;25.90;15.00;;;;;;;4.82;74.74;96892.19;5118100;27;20729;-84
2024/03/09 09:05:14;;;;;;;18.40;14.43;;;;;;;4.51;74.72;96832.91;5131866;27;20221;-86
2024/03/09 09:07:42;;;;;;;18.73;12.70;;;;;;;4.99;74.41;96892.13;5134191;27;20198;-85
2024/03/09 09:10:11;;;;;;;16.50;11.80;;;;;;;5.09;74.14;96894.13;5133802;27;20676;-85
2024/03/09 09:12:39;;;;;;;18.17;12.27;;;;;;;4.99;73.60;96891.34;5130464;27;20277;-85
2024/03/09 09:15:09;;;;;;;17.80;13.23;;;;;;;4.85;74.19;96890.91;5121528;27;20250;-85
2024/03/09 09:17:36;;;;;;;19.87;13.63;;;;;;;4.87;74.07;96870.34;5119957;27;20251;-86
2024/03/09 09:20:04;;;;;;;17.63;13.27;;;;;;;5.22;72.98;96892.97;5125251;27;20650;-85
2024/03/09 09:22:31;;;;;;;17.13;12.13;;;;;;;5.21;72.12;96896.66;5117940;27;20209;-86
2024/03/09 09:24:58;;;;;;;18.37;11.97;;;;;;;5.30;72.13;96887.28;5132557;27;20198;-86
2024/03/09 09:27:26;;;;;;;19.07;14.20;;;;;;;5.37;71.71;96882.63;5121310;27;20773;-86
2024/03/09 09:29:54;;;;;;;18.97;13.47;;;;;;;5.12;71.81;96872.56;5114273;27;20196;-86
2024/03/09 09:32:24;;;;;;;16.63;12.40;;;;;;;5.25;71.64;96887.22;5131839;27;20645;-84
2024/03/09 09:34:51;;;;;;;14.03;11.93;;;;;;;5.35;72.14;96874.97;5113695;28;20211;-85
2024/03/09 09:37:18;;;;;;;18.70;10.90;;;;;;;5.29;71.45;96878.56;5114631;28;20764;-84
2024/03/09 09:39:46;;;;;;;16.20;11.47;;;;;;;5.38;71.65;96878.94;5130266;27;20195;-86
2024/03/09 09:42:13;;;;;;;55.67;17.57;;;;;;;5.66;71.33;96880.59;5134516;27;20203;-85
2024/03/09 09:44:44;;;;;;;23.03;13.63;;;;;;;5.70;69.61;96881.69;5134051;27;20202;-86
2024/03/09 09:47:13;;;;;;;17.67;12.90;;;;;;;5.67;69.49;96863.72;5134791;27;20205;-84
2024/03/09 09:49:44;;;;;;;19.43;12.10;;;;;;;5.79;69.38;96889.97;5122363;27;20207;-86
2024/03/09 09:52:12;;;;;;;16.57;12.20;;;;;;;5.75;71.14;96875.69;5114483;27;20286;-86
2024/03/09 09:54:41;;;;;;;21.60;14.27;;;;;;;5.57;71.25;96861.72;5121853;27;20222;-85
2024/03/09 09:57:10;;;;;;;19.87;15.30;;;;;;;5.46;71.48;96860.06;5134138;27;20322;-86
2024/03/09 09:59:38;;;;;;;17.17;13.50;;;;;;;5.48;71.14;96865.06;5134815;27;20313;-85
2024/03/09 10:02:06;;;;;;;16.93;13.27;;;;;;;5.62;71.99;96901.41;5132963;27;20676;-85
2024/03/09 10:04:37;;;;;;;19.47;14.00;;;;;;;5.56;71.66;96883.13;5133127;27;20205;-85
2024/03/09 10:07:09;;;;;;;21.80;13.50;;;;;;;5.54;71.71;96890.50;5134255;27;20598;-85
2024/03/09 10:09:36;;;;;;;20.70;13.23;;;;;;;5.60;71.92;96890.28;5133878;27;20190;-85
2024/03/09 10:12:03;;;;;;;22.17;14.70;;;;;;;5.23;71.93;96841.81;5133451;27;20300;-84
2024/03/09 10:14:31;;;;;;;22.03;15.47;;;;;;;5.29;72.46;96832.91;5125444;27;20218;-85
2024/03/09 10:17:02;;;;;;;18.47;15.10;;;;;;;5.59;71.89;96877.34;5131068;27;20259;-85
2024/03/09 10:19:30;;;;;;;23.80;16.70;;;;;;;5.57;73.12;96885.50;5125597;27;20286;-85
2024/03/09 10:21:57;;;;;;;32.67;20.67;;;;;;;5.64;72.99;96883.47;5128668;27;20202;-85
2024/03/09 10:24:26;;;;;;;42.53;27.13;;;;;;;5.57;72.44;96885.50;5132905;27;20203;-85
2024/03/09 10:26:54;;;;;;;25.10;19.83;;;;;;;5.42;73.06;96897.72;5120407;27;20275;-85
2024/03/09 10:29:22;;;;;;;26.23;17.50;;;;;;;5.33;72.91;96900.00;5113921;28;20283;-85
2024/03/09 10:31:50;;;;;;;30.63;21.40;;;;;;;5.31;73.26;96873.84;5125857;27;20198;-85
2024/03/09 10:34:18;;;;;;;25.07;19.23;;;;;;;5.06;72.90;96857.69;5125838;27;20297;-85
2024/03/09 10:36:44;;;;;;;23.37;17.20;;;;;;;5.06;72.37;96826.03;5125928;27;20203;-85
2024/03/09 10:39:19;;;;;;;29.10;20.83;;;;;;;5.59;73.10;96872.88;5131378;27;20226;-85
2024/03/09 10:41:51;;;;;;;26.77;19.13;;;;;;;5.59;72.85;96874.72;5126638;27;20221;-85
2024/03/09 10:44:17;;;;;;;37.07;21.90;;;;;;;5.40;73.88;96875.00;5133899;27;20255;-85
2024/03/09 10:46:48;;;;;;;52.77;31.77;;;;;;;5.41;73.92;96873.16;5134054;27;20657;-85
2024/03/09 10:49:20;;;;;;;31.33;19.80;;;;;;;5.43;73.25;96880.84;5126236;27;20195;-85
2024/03/09 10:51:52;;;;;;;36.77;24.07;;;;;;;5.32;74.08;96877.28;5113219;28;20252;-84
2024/03/09 10:54:22;;;;;;;31.83;22.87;;;;;;;5.43;73.77;96873.72;5116394;27;20217;-85
2024/03/09 10:56:51;;;;;;;35.37;25.27;;;;;;;5.50;74.21;96879.63;5118646;27;20264;-85
2024/03/09 10:59:22;;;;;;;33.43;21.27;;;;;;;5.47;74.24;96879.31;5130904;27;20653;-85
2024/03/09 11:01:52;;;;;;;30.30;19.00;;;;;;;5.32;74.84;96874.66;5133208;27;20680;-85
2024/03/09 11:04:20;;;;;;;25.97;18.67;;;;;;;5.37;74.56;96874.69;5131892;27;20208;-84
2024/03/09 11:06:47;;;;;;;21.37;18.27;;;;;;;4.90;73.75;96815.28;5131736;27;20234;-84
2024/03/09 11:09:16;;;;;;;21.80;17.17;;;;;;;5.35;73.48;96871.53;5113916;27;20199;-86
2024/03/09 11:11:45;;;;;;;30.53;23.70;;;;;;;5.36;73.42;96871.28;5117041;27;20202;-84
2024/03/09 11:14:22;;;;;;;23.23;16.87;;;;;;;5.28;73.47;96847.94;5113496;27;20207;-85
2024/03/09 11:16:53;;;;;;;23.53;18.53;;;;;;;5.46;73.68;96867.97;5110106;28;20254;-85
2024/03/09 11:19:20;;;;;;;31.63;22.83;;;;;;;5.39;72.99;96849.66;5132008;28;20679;-85
2024/03/09 11:21:48;;;;;;;24.13;18.43;;;;;;;5.31;73.60;96857.22;5132621;28;20621;-85
2024/03/09 11:24:16;;;;;;;23.63;16.97;;;;;;;5.06;74.37;96826.03;5133158;28;20191;-85
2024/03/09 11:26:46;;;;;;;33.37;22.30;;;;;;;5.44;73.92;96859.47;5131575;28;20190;-84
2024/03/09 11:29:13;;;;;;;23.00;16.53;;;;;;;5.28;72.76;96842.66;5136798;27;20205;-85
2024/03/09 11:31:42;;;;;;;24.90;16.43;;;;;;;5.46;74.41;96848.66;5123091;27;20229;-85